sensor_id;sensor_type;location;lat;lon;timestamp;P1;durP1;ratioP1;P2;durP2;ratioP2
19207;SDS011;9737;59.466;18.036;2024-03-29T00:02:17;76.90;;;29.20;;
19207;SDS011;9737;59.466;18.036;2024-03-29T00:04:43;71.25;;;28.42;;
19207;SDS011;9737;59.466;18.036;2024-03-29T00:07:10;79.30;;;29.85;;
19207;SDS011;9737;59.466;18.036;2024-03-29T00:09:36;73.68;;;29.75;;
19207;SDS011;9737;59.466;18.036;2024-03-29T00:12:02;71.65;;;28.92;;
19207;SDS011;9737;59.466;18.036;2024-03-29T00:14:29;67.38;;;28.88;;
19207;SDS011;9737;59.466;18.036;2024-03-29T00:16:58;73.00;;;31.30;;
19207;SDS011;9737;59.466;18.036;2024-03-29T00:19:24;78.47;;;30.02;;
19207;SDS011;9737;59.466;18.036;2024-03-29T00:21:50;69.80;;;29.25;;
19207;SDS011;9737;59.466;18.036;2024-03-29T00:24:17;77.03;;;29.90;;
19207;SDS011;9737;59.466;18.036;2024-03-29T00:26:43;77.13;;;29.48;;
19207;SDS011;9737;59.466;18.036;2024-03-29T00:29:09;71.35;;;29.88;;
19207;SDS011;9737;59.466;18.036;2024-03-29T00:31:35;92.22;;;30.60;;
19207;SDS011;9737;59.466;18.036;2024-03-29T00:34:03;82.35;;;30.80;;
19207;SDS011;9737;59.466;18.036;2024-03-29T00:36:29;76.00;;;30.70;;
19207;SDS011;9737;59.466;18.036;2024-03-29T00:38:55;78.93;;;30.63;;
19207;SDS011;9737;59.466;18.036;2024-03-29T00:41:22;86.15;;;30.33;;
19207;SDS011;9737;59.466;18.036;2024-03-29T00:43:48;85.25;;;29.50;;
19207;SDS011;9737;59.466;18.036;2024-03-29T00:46:14;93.75;;;29.52;;
19207;SDS011;9737;59.466;18.036;2024-03-29T00:48:42;81.25;;;29.42;;
19207;SDS011;9737;59.466;18.036;2024-03-29T00:51:10;83.05;;;30.23;;
19207;SDS011;9737;59.466;18.036;2024-03-29T00:53:37;83.85;;;31.35;;
19207;SDS011;9737;59.466;18.036;2024-03-29T00:56:03;84.78;;;29.23;;
19207;SDS011;9737;59.466;18.036;2024-03-29T00:58:30;81.05;;;30.38;;
19207;SDS011;9737;59.466;18.036;2024-03-29T01:00:56;85.65;;;30.38;;
19207;SDS011;9737;59.466;18.036;2024-03-29T01:03:22;86.00;;;30.35;;
19207;SDS011;9737;59.466;18.036;2024-03-29T01:05:49;96.93;;;31.08;;
19207;SDS011;9737;59.466;18.036;2024-03-29T01:08:16;100.70;;;31.75;;
19207;SDS011;9737;59.466;18.036;2024-03-29T01:10:43;87.45;;;30.13;;
19207;SDS011;9737;59.466;18.036;2024-03-29T01:13:10;86.60;;;31.08;;
19207;SDS011;9737;59.466;18.036;2024-03-29T01:15:36;89.38;;;31.35;;
19207;SDS011;9737;59.466;18.036;2024-03-29T01:18:26;103.93;;;31.17;;
19207;SDS011;9737;59.466;18.036;2024-03-29T01:20:52;94.38;;;30.42;;
19207;SDS011;9737;59.466;18.036;2024-03-29T01:23:20;99.70;;;31.33;;
19207;SDS011;9737;59.466;18.036;2024-03-29T01:25:47;96.50;;;32.13;;
19207;SDS011;9737;59.466;18.036;2024-03-29T01:28:13;90.47;;;31.92;;
19207;SDS011;9737;59.466;18.036;2024-03-29T01:30:39;104.82;;;30.98;;
19207;SDS011;9737;59.466;18.036;2024-03-29T01:33:05;117.50;;;31.35;;
19207;SDS011;9737;59.466;18.036;2024-03-29T01:35:32;115.75;;;31.73;;
19207;SDS011;9737;59.466;18.036;2024-03-29T01:37:58;95.25;;;32.72;;
19207;SDS011;9737;59.466;18.036;2024-03-29T01:40:26;102.78;;;31.55;;
19207;SDS011;9737;59.466;18.036;2024-03-29T01:42:52;109.80;;;31.83;;
19207;SDS011;9737;59.466;18.036;2024-03-29T01:45:19;99.90;;;32.10;;
19207;SDS011;9737;59.466;18.036;2024-03-29T01:47:45;97.30;;;31.88;;
19207;SDS011;9737;59.466;18.036;2024-03-29T01:50:12;98.63;;;30.77;;
19207;SDS011;9737;59.466;18.036;2024-03-29T01:52:38;91.50;;;31.52;;
19207;SDS011;9737;59.466;18.036;2024-03-29T01:55:06;95.97;;;31.38;;
19207;SDS011;9737;59.466;18.036;2024-03-29T01:57:34;107.53;;;31.25;;
19207;SDS011;9737;59.466;18.036;2024-03-29T02:00:00;79.28;;;30.45;;
19207;SDS011;9737;59.466;18.036;2024-03-29T02:02:27;91.28;;;31.50;;
19207;SDS011;9737;59.466;18.036;2024-03-29T02:04:54;99.75;;;32.75;;
19207;SDS011;9737;59.466;18.036;2024-03-29T02:07:21;98.65;;;31.30;;
19207;SDS011;9737;59.466;18.036;2024-03-29T02:09:48;88.78;;;30.50;;
19207;SDS011;9737;59.466;18.036;2024-03-29T02:12:14;107.10;;;31.85;;
19207;SDS011;9737;59.466;18.036;2024-03-29T02:14:42;90.72;;;30.65;;
19207;SDS011;9737;59.466;18.036;2024-03-29T02:17:08;91.28;;;31.73;;
19207;SDS011;9737;59.466;18.036;2024-03-29T02:19:35;90.38;;;30.83;;
19207;SDS011;9737;59.466;18.036;2024-03-29T02:22:01;89.30;;;30.48;;
19207;SDS011;9737;59.466;18.036;2024-03-29T02:24:31;87.75;;;28.95;;
19207;SDS011;9737;59.466;18.036;2024-03-29T02:26:58;81.25;;;30.48;;
19207;SDS011;9737;59.466;18.036;2024-03-29T02:29:24;96.60;;;28.75;;
19207;SDS011;9737;59.466;18.036;2024-03-29T02:31:50;88.90;;;29.70;;
19207;SDS011;9737;59.466;18.036;2024-03-29T02:34:17;85.00;;;29.65;;
19207;SDS011;9737;59.466;18.036;2024-03-29T02:36:44;80.57;;;29.33;;
19207;SDS011;9737;59.466;18.036;2024-03-29T02:39:11;81.28;;;29.75;;
19207;SDS011;9737;59.466;18.036;2024-03-29T02:41:38;87.65;;;28.55;;
19207;SDS011;9737;59.466;18.036;2024-03-29T02:44:04;83.40;;;30.10;;
19207;SDS011;9737;59.466;18.036;2024-03-29T02:46:31;83.15;;;29.25;;
19207;SDS011;9737;59.466;18.036;2024-03-29T02:48:57;82.18;;;28.38;;
19207;SDS011;9737;59.466;18.036;2024-03-29T02:51:23;77.70;;;28.30;;
19207;SDS011;9737;59.466;18.036;2024-03-29T02:53:49;70.65;;;26.88;;
19207;SDS011;9737;59.466;18.036;2024-03-29T02:56:16;68.93;;;26.63;;
19207;SDS011;9737;59.466;18.036;2024-03-29T02:58:43;66.03;;;26.80;;
19207;SDS011;9737;59.466;18.036;2024-03-29T03:01:09;67.65;;;27.08;;
19207;SDS011;9737;59.466;18.036;2024-03-29T03:03:36;63.70;;;25.00;;
19207;SDS011;9737;59.466;18.036;2024-03-29T03:06:03;66.57;;;25.63;;
19207;SDS011;9737;59.466;18.036;2024-03-29T03:08:29;58.22;;;24.00;;
19207;SDS011;9737;59.466;18.036;2024-03-29T03:10:56;60.38;;;25.20;;
19207;SDS011;9737;59.466;18.036;2024-03-29T03:13:22;64.78;;;25.70;;
19207;SDS011;9737;59.466;18.036;2024-03-29T03:15:49;61.95;;;25.13;;
19207;SDS011;9737;59.466;18.036;2024-03-29T03:18:16;62.63;;;24.85;;
19207;SDS011;9737;59.466;18.036;2024-03-29T03:20:42;63.33;;;24.58;;
19207;SDS011;9737;59.466;18.036;2024-03-29T03:23:08;65.65;;;24.73;;
19207;SDS011;9737;59.466;18.036;2024-03-29T03:25:35;71.68;;;25.27;;
19207;SDS011;9737;59.466;18.036;2024-03-29T03:28:01;62.85;;;25.08;;
19207;SDS011;9737;59.466;18.036;2024-03-29T03:30:28;62.28;;;24.23;;
19207;SDS011;9737;59.466;18.036;2024-03-29T03:32:55;59.85;;;23.73;;
19207;SDS011;9737;59.466;18.036;2024-03-29T03:35:21;60.50;;;22.42;;
19207;SDS011;9737;59.466;18.036;2024-03-29T03:37:48;58.25;;;22.35;;
19207;SDS011;9737;59.466;18.036;2024-03-29T03:40:14;59.03;;;22.13;;
19207;SDS011;9737;59.466;18.036;2024-03-29T03:42:40;56.22;;;21.55;;
19207;SDS011;9737;59.466;18.036;2024-03-29T03:45:07;68.25;;;21.98;;
19207;SDS011;9737;59.466;18.036;2024-03-29T03:47:33;54.95;;;19.83;;
19207;SDS011;9737;59.466;18.036;2024-03-29T03:50:01;58.20;;;20.58;;
19207;SDS011;9737;59.466;18.036;2024-03-29T03:52:27;54.13;;;19.65;;
19207;SDS011;9737;59.466;18.036;2024-03-29T03:54:53;57.78;;;20.05;;
19207;SDS011;9737;59.466;18.036;2024-03-29T03:57:20;58.20;;;19.98;;
19207;SDS011;9737;59.466;18.036;2024-03-29T03:59:46;57.05;;;19.67;;
19207;SDS011;9737;59.466;18.036;2024-03-29T04:02:14;56.85;;;20.10;;
19207;SDS011;9737;59.466;18.036;2024-03-29T04:04:41;54.55;;;20.35;;
19207;SDS011;9737;59.466;18.036;2024-03-29T04:07:08;58.08;;;20.67;;
19207;SDS011;9737;59.466;18.036;2024-03-29T04:09:35;59.08;;;20.05;;
19207;SDS011;9737;59.466;18.036;2024-03-29T04:12:01;59.40;;;21.05;;
19207;SDS011;9737;59.466;18.036;2024-03-29T04:14:27;58.05;;;21.15;;
19207;SDS011;9737;59.466;18.036;2024-03-29T04:16:53;64.60;;;22.42;;
19207;SDS011;9737;59.466;18.036;2024-03-29T04:19:20;64.90;;;23.38;;
19207;SDS011;9737;59.466;18.036;2024-03-29T04:21:46;63.30;;;22.70;;
19207;SDS011;9737;59.466;18.036;2024-03-29T04:24:13;73.68;;;22.73;;
19207;SDS011;9737;59.466;18.036;2024-03-29T04:26:40;71.63;;;23.02;;
19207;SDS011;9737;59.466;18.036;2024-03-29T04:29:06;70.80;;;23.45;;
19207;SDS011;9737;59.466;18.036;2024-03-29T04:31:32;75.13;;;23.40;;
19207;SDS011;9737;59.466;18.036;2024-03-29T04:33:58;84.30;;;26.17;;
19207;SDS011;9737;59.466;18.036;2024-03-29T04:36:25;81.72;;;25.63;;
19207;SDS011;9737;59.466;18.036;2024-03-29T04:38:51;77.55;;;26.10;;
19207;SDS011;9737;59.466;18.036;2024-03-29T04:41:18;75.95;;;26.40;;
19207;SDS011;9737;59.466;18.036;2024-03-29T04:43:45;81.70;;;26.63;;
19207;SDS011;9737;59.466;18.036;2024-03-29T04:46:13;72.53;;;26.05;;
19207;SDS011;9737;59.466;18.036;2024-03-29T04:48:40;88.22;;;28.60;;
19207;SDS011;9737;59.466;18.036;2024-03-29T04:51:07;84.05;;;27.17;;
19207;SDS011;9737;59.466;18.036;2024-03-29T04:53:34;75.80;;;27.00;;
19207;SDS011;9737;59.466;18.036;2024-03-29T04:56:01;84.47;;;28.00;;
19207;SDS011;9737;59.466;18.036;2024-03-29T04:58:29;76.45;;;26.88;;
19207;SDS011;9737;59.466;18.036;2024-03-29T05:00:55;79.63;;;28.08;;
19207;SDS011;9737;59.466;18.036;2024-03-29T05:03:21;80.03;;;28.42;;
19207;SDS011;9737;59.466;18.036;2024-03-29T05:05:49;89.32;;;28.42;;
19207;SDS011;9737;59.466;18.036;2024-03-29T05:08:16;76.28;;;27.02;;
19207;SDS011;9737;59.466;18.036;2024-03-29T05:10:42;77.25;;;27.23;;
19207;SDS011;9737;59.466;18.036;2024-03-29T05:13:09;81.88;;;27.38;;
19207;SDS011;9737;59.466;18.036;2024-03-29T05:15:37;76.88;;;27.08;;
19207;SDS011;9737;59.466;18.036;2024-03-29T05:18:03;80.90;;;27.95;;
19207;SDS011;9737;59.466;18.036;2024-03-29T05:20:30;77.50;;;26.77;;
19207;SDS011;9737;59.466;18.036;2024-03-29T05:22:57;71.30;;;26.05;;
19207;SDS011;9737;59.466;18.036;2024-03-29T05:25:23;69.43;;;24.45;;
19207;SDS011;9737;59.466;18.036;2024-03-29T05:27:50;71.32;;;25.95;;
19207;SDS011;9737;59.466;18.036;2024-03-29T05:30:16;69.82;;;25.63;;
19207;SDS011;9737;59.466;18.036;2024-03-29T05:32:44;65.13;;;25.67;;
19207;SDS011;9737;59.466;18.036;2024-03-29T05:35:10;71.85;;;25.92;;
19207;SDS011;9737;59.466;18.036;2024-03-29T05:37:36;67.80;;;25.45;;
19207;SDS011;9737;59.466;18.036;2024-03-29T05:40:03;64.72;;;25.02;;
19207;SDS011;9737;59.466;18.036;2024-03-29T05:42:31;68.65;;;24.95;;
19207;SDS011;9737;59.466;18.036;2024-03-29T05:44:58;69.75;;;25.15;;
19207;SDS011;9737;59.466;18.036;2024-03-29T05:47:25;70.85;;;24.95;;
19207;SDS011;9737;59.466;18.036;2024-03-29T05:49:53;65.20;;;24.23;;
19207;SDS011;9737;59.466;18.036;2024-03-29T05:52:19;60.42;;;24.02;;
19207;SDS011;9737;59.466;18.036;2024-03-29T05:54:45;67.35;;;24.67;;
19207;SDS011;9737;59.466;18.036;2024-03-29T05:57:13;63.42;;;23.50;;
19207;SDS011;9737;59.466;18.036;2024-03-29T05:59:39;60.50;;;25.25;;
19207;SDS011;9737;59.466;18.036;2024-03-29T06:02:05;62.17;;;23.95;;
19207;SDS011;9737;59.466;18.036;2024-03-29T06:04:31;68.80;;;23.20;;
19207;SDS011;9737;59.466;18.036;2024-03-29T06:06:59;59.00;;;23.23;;
19207;SDS011;9737;59.466;18.036;2024-03-29T06:09:26;58.97;;;22.75;;
19207;SDS011;9737;59.466;18.036;2024-03-29T06:11:52;60.30;;;24.13;;
19207;SDS011;9737;59.466;18.036;2024-03-29T06:14:19;58.58;;;23.13;;
19207;SDS011;9737;59.466;18.036;2024-03-29T06:16:45;54.50;;;23.05;;
19207;SDS011;9737;59.466;18.036;2024-03-29T06:19:12;56.88;;;22.98;;
19207;SDS011;9737;59.466;18.036;2024-03-29T06:21:38;65.13;;;24.02;;
19207;SDS011;9737;59.466;18.036;2024-03-29T06:24:06;59.47;;;23.52;;
19207;SDS011;9737;59.466;18.036;2024-03-29T06:26:33;65.35;;;23.88;;
19207;SDS011;9737;59.466;18.036;2024-03-29T06:29:00;67.13;;;23.80;;
19207;SDS011;9737;59.466;18.036;2024-03-29T06:31:26;61.28;;;23.92;;
19207;SDS011;9737;59.466;18.036;2024-03-29T06:33:53;58.67;;;23.52;;
19207;SDS011;9737;59.466;18.036;2024-03-29T06:36:19;58.08;;;23.88;;
19207;SDS011;9737;59.466;18.036;2024-03-29T06:38:45;58.72;;;22.65;;
19207;SDS011;9737;59.466;18.036;2024-03-29T06:41:14;55.22;;;21.83;;
19207;SDS011;9737;59.466;18.036;2024-03-29T06:43:40;64.70;;;23.15;;
19207;SDS011;9737;59.466;18.036;2024-03-29T06:46:07;59.20;;;22.67;;
19207;SDS011;9737;59.466;18.036;2024-03-29T06:48:34;54.17;;;21.92;;
19207;SDS011;9737;59.466;18.036;2024-03-29T06:51:00;57.75;;;20.52;;
19207;SDS011;9737;59.466;18.036;2024-03-29T06:53:26;54.78;;;21.98;;
19207;SDS011;9737;59.466;18.036;2024-03-29T06:55:54;51.42;;;20.98;;
19207;SDS011;9737;59.466;18.036;2024-03-29T06:58:22;52.95;;;21.42;;
19207;SDS011;9737;59.466;18.036;2024-03-29T07:00:48;52.35;;;20.70;;
19207;SDS011;9737;59.466;18.036;2024-03-29T07:03:15;55.45;;;20.73;;
19207;SDS011;9737;59.466;18.036;2024-03-29T07:05:41;55.67;;;21.40;;
19207;SDS011;9737;59.466;18.036;2024-03-29T07:08:07;49.28;;;20.92;;
19207;SDS011;9737;59.466;18.036;2024-03-29T07:10:34;43.55;;;19.63;;
19207;SDS011;9737;59.466;18.036;2024-03-29T07:13:00;50.45;;;19.83;;
19207;SDS011;9737;59.466;18.036;2024-03-29T07:15:28;50.35;;;20.45;;
19207;SDS011;9737;59.466;18.036;2024-03-29T07:17:54;44.75;;;20.08;;
19207;SDS011;9737;59.466;18.036;2024-03-29T07:20:20;38.50;;;18.08;;
19207;SDS011;9737;59.466;18.036;2024-03-29T07:22:47;42.30;;;19.63;;
19207;SDS011;9737;59.466;18.036;2024-03-29T07:25:13;49.92;;;18.98;;
19207;SDS011;9737;59.466;18.036;2024-03-29T07:27:39;42.25;;;18.73;;
19207;SDS011;9737;59.466;18.036;2024-03-29T07:30:06;41.35;;;19.25;;
19207;SDS011;9737;59.466;18.036;2024-03-29T07:32:34;37.67;;;18.20;;
19207;SDS011;9737;59.466;18.036;2024-03-29T07:35:00;35.47;;;17.05;;
19207;SDS011;9737;59.466;18.036;2024-03-29T07:37:27;36.65;;;16.77;;
19207;SDS011;9737;59.466;18.036;2024-03-29T07:39:53;35.25;;;16.58;;
19207;SDS011;9737;59.466;18.036;2024-03-29T07:42:19;33.25;;;16.48;;
19207;SDS011;9737;59.466;18.036;2024-03-29T07:44:45;30.92;;;15.77;;
19207;SDS011;9737;59.466;18.036;2024-03-29T07:47:12;34.72;;;17.38;;
19207;SDS011;9737;59.466;18.036;2024-03-29T07:49:39;32.05;;;15.48;;
19207;SDS011;9737;59.466;18.036;2024-03-29T07:52:06;32.35;;;14.73;;
19207;SDS011;9737;59.466;18.036;2024-03-29T07:54:32;28.80;;;12.90;;
19207;SDS011;9737;59.466;18.036;2024-03-29T07:56:59;31.08;;;14.50;;
19207;SDS011;9737;59.466;18.036;2024-03-29T07:59:25;29.70;;;13.82;;
19207;SDS011;9737;59.466;18.036;2024-03-29T08:01:51;24.13;;;13.45;;
19207;SDS011;9737;59.466;18.036;2024-03-29T08:04:17;27.02;;;12.95;;
19207;SDS011;9737;59.466;18.036;2024-03-29T08:06:45;29.20;;;12.77;;
19207;SDS011;9737;59.466;18.036;2024-03-29T08:09:11;26.73;;;12.77;;
19207;SDS011;9737;59.466;18.036;2024-03-29T08:11:37;25.88;;;12.30;;
19207;SDS011;9737;59.466;18.036;2024-03-29T08:14:03;24.55;;;12.00;;
19207;SDS011;9737;59.466;18.036;2024-03-29T08:16:30;21.30;;;12.13;;
19207;SDS011;9737;59.466;18.036;2024-03-29T08:18:56;21.63;;;11.18;;
19207;SDS011;9737;59.466;18.036;2024-03-29T08:21:22;24.13;;;11.63;;
19207;SDS011;9737;59.466;18.036;2024-03-29T08:23:50;20.38;;;11.85;;
19207;SDS011;9737;59.466;18.036;2024-03-29T08:26:16;24.02;;;11.25;;
19207;SDS011;9737;59.466;18.036;2024-03-29T08:28:44;20.10;;;10.68;;
19207;SDS011;9737;59.466;18.036;2024-03-29T08:31:10;19.73;;;10.43;;
19207;SDS011;9737;59.466;18.036;2024-03-29T08:33:37;23.60;;;9.90;;
19207;SDS011;9737;59.466;18.036;2024-03-29T08:36:03;21.35;;;10.35;;
19207;SDS011;9737;59.466;18.036;2024-03-29T08:38:30;18.00;;;9.70;;
19207;SDS011;9737;59.466;18.036;2024-03-29T08:40:57;19.60;;;9.93;;
19207;SDS011;9737;59.466;18.036;2024-03-29T08:43:24;18.67;;;9.93;;
19207;SDS011;9737;59.466;18.036;2024-03-29T08:45:50;17.48;;;9.13;;
19207;SDS011;9737;59.466;18.036;2024-03-29T08:48:16;20.63;;;9.23;;
19207;SDS011;9737;59.466;18.036;2024-03-29T08:50:43;21.05;;;9.05;;
19207;SDS011;9737;59.466;18.036;2024-03-29T08:53:09;17.33;;;8.80;;
19207;SDS011;9737;59.466;18.036;2024-03-29T08:55:35;13.95;;;8.25;;
19207;SDS011;9737;59.466;18.036;2024-03-29T08:58:03;15.10;;;8.55;;
19207;SDS011;9737;59.466;18.036;2024-03-29T09:00:30;17.17;;;8.90;;
19207;SDS011;9737;59.466;18.036;2024-03-29T09:02:56;19.13;;;8.50;;
19207;SDS011;9737;59.466;18.036;2024-03-29T09:05:23;17.33;;;7.95;;
19207;SDS011;9737;59.466;18.036;2024-03-29T09:07:49;15.27;;;7.97;;
19207;SDS011;9737;59.466;18.036;2024-03-29T09:10:16;13.40;;;7.47;;
19207;SDS011;9737;59.466;18.036;2024-03-29T09:12:43;16.65;;;7.57;;
19207;SDS011;9737;59.466;18.036;2024-03-29T09:15:10;14.30;;;7.18;;
19207;SDS011;9737;59.466;18.036;2024-03-29T09:17:37;18.60;;;7.50;;
19207;SDS011;9737;59.466;18.036;2024-03-29T09:20:03;16.10;;;6.95;;
19207;SDS011;9737;59.466;18.036;2024-03-29T09:22:30;16.05;;;7.22;;
19207;SDS011;9737;59.466;18.036;2024-03-29T09:24:56;13.65;;;7.65;;
19207;SDS011;9737;59.466;18.036;2024-03-29T09:27:22;13.10;;;7.53;;
19207;SDS011;9737;59.466;18.036;2024-03-29T09:29:51;15.50;;;7.25;;
19207;SDS011;9737;59.466;18.036;2024-03-29T09:32:18;13.50;;;7.40;;
19207;SDS011;9737;59.466;18.036;2024-03-29T09:34:44;15.27;;;7.05;;
19207;SDS011;9737;59.466;18.036;2024-03-29T09:37:11;10.93;;;6.60;;
19207;SDS011;9737;59.466;18.036;2024-03-29T09:39:38;10.05;;;6.13;;
19207;SDS011;9737;59.466;18.036;2024-03-29T09:42:04;14.02;;;6.15;;
19207;SDS011;9737;59.466;18.036;2024-03-29T09:44:33;12.25;;;6.32;;
19207;SDS011;9737;59.466;18.036;2024-03-29T09:47:01;10.27;;;5.63;;
19207;SDS011;9737;59.466;18.036;2024-03-29T09:49:30;14.05;;;6.60;;
19207;SDS011;9737;59.466;18.036;2024-03-29T09:51:57;13.05;;;6.47;;
19207;SDS011;9737;59.466;18.036;2024-03-29T09:54:24;10.32;;;5.90;;
19207;SDS011;9737;59.466;18.036;2024-03-29T09:56:53;14.02;;;6.60;;
19207;SDS011;9737;59.466;18.036;2024-03-29T09:59:20;13.15;;;6.18;;
19207;SDS011;9737;59.466;18.036;2024-03-29T10:01:46;14.18;;;5.90;;
19207;SDS011;9737;59.466;18.036;2024-03-29T10:04:14;14.57;;;5.80;;
19207;SDS011;9737;59.466;18.036;2024-03-29T10:06:44;10.82;;;5.53;;
19207;SDS011;9737;59.466;18.036;2024-03-29T10:09:12;13.13;;;5.47;;
19207;SDS011;9737;59.466;18.036;2024-03-29T10:11:38;8.90;;;5.47;;
19207;SDS011;9737;59.466;18.036;2024-03-29T10:14:04;9.07;;;5.40;;
19207;SDS011;9737;59.466;18.036;2024-03-29T10:16:31;9.20;;;5.65;;
19207;SDS011;9737;59.466;18.036;2024-03-29T10:18:58;10.35;;;5.55;;
19207;SDS011;9737;59.466;18.036;2024-03-29T10:21:24;11.20;;;6.30;;
19207;SDS011;9737;59.466;18.036;2024-03-29T10:23:52;11.68;;;6.38;;
19207;SDS011;9737;59.466;18.036;2024-03-29T10:26:19;12.60;;;6.40;;
19207;SDS011;9737;59.466;18.036;2024-03-29T10:28:46;14.50;;;6.20;;
19207;SDS011;9737;59.466;18.036;2024-03-29T10:31:13;10.93;;;6.30;;
19207;SDS011;9737;59.466;18.036;2024-03-29T10:33:41;10.63;;;6.10;;
19207;SDS011;9737;59.466;18.036;2024-03-29T10:36:09;10.52;;;6.13;;
19207;SDS011;9737;59.466;18.036;2024-03-29T10:38:35;10.32;;;5.85;;
19207;SDS011;9737;59.466;18.036;2024-03-29T10:41:03;9.57;;;5.82;;
19207;SDS011;9737;59.466;18.036;2024-03-29T10:43:30;12.30;;;6.07;;
19207;SDS011;9737;59.466;18.036;2024-03-29T10:45:56;11.23;;;6.53;;
19207;SDS011;9737;59.466;18.036;2024-03-29T10:48:25;12.10;;;6.20;;
19207;SDS011;9737;59.466;18.036;2024-03-29T10:50:52;13.68;;;5.68;;
19207;SDS011;9737;59.466;18.036;2024-03-29T10:53:20;14.07;;;6.80;;
19207;SDS011;9737;59.466;18.036;2024-03-29T10:55:48;12.68;;;6.13;;
19207;SDS011;9737;59.466;18.036;2024-03-29T10:58:20;16.52;;;6.57;;
19207;SDS011;9737;59.466;18.036;2024-03-29T11:00:49;10.02;;;6.03;;
19207;SDS011;9737;59.466;18.036;2024-03-29T11:03:20;10.40;;;6.00;;
19207;SDS011;9737;59.466;18.036;2024-03-29T11:05:49;16.30;;;6.80;;
19207;SDS011;9737;59.466;18.036;2024-03-29T11:08:16;8.90;;;5.93;;
19207;SDS011;9737;59.466;18.036;2024-03-29T11:10:47;12.85;;;7.45;;
19207;SDS011;9737;59.466;18.036;2024-03-29T11:13:16;10.68;;;6.00;;
19207;SDS011;9737;59.466;18.036;2024-03-29T11:15:51;15.05;;;6.88;;
19207;SDS011;9737;59.466;18.036;2024-03-29T11:18:17;13.60;;;7.10;;
19207;SDS011;9737;59.466;18.036;2024-03-29T11:20:45;15.40;;;6.85;;
19207;SDS011;9737;59.466;18.036;2024-03-29T11:23:13;13.90;;;7.10;;
19207;SDS011;9737;59.466;18.036;2024-03-29T11:25:41;14.32;;;6.18;;
19207;SDS011;9737;59.466;18.036;2024-03-29T11:28:08;15.45;;;6.22;;
19207;SDS011;9737;59.466;18.036;2024-03-29T11:30:41;23.33;;;6.80;;
19207;SDS011;9737;59.466;18.036;2024-03-29T11:33:08;14.02;;;6.20;;
19207;SDS011;9737;59.466;18.036;2024-03-29T11:35:38;11.73;;;5.85;;
19207;SDS011;9737;59.466;18.036;2024-03-29T11:38:05;13.80;;;6.20;;
19207;SDS011;9737;59.466;18.036;2024-03-29T11:40:32;13.85;;;6.40;;
19207;SDS011;9737;59.466;18.036;2024-03-29T11:42:58;14.38;;;6.15;;
19207;SDS011;9737;59.466;18.036;2024-03-29T11:45:24;17.27;;;5.88;;
19207;SDS011;9737;59.466;18.036;2024-03-29T11:47:53;11.80;;;5.72;;
19207;SDS011;9737;59.466;18.036;2024-03-29T11:50:21;10.88;;;5.55;;
19207;SDS011;9737;59.466;18.036;2024-03-29T11:52:47;11.30;;;4.93;;
19207;SDS011;9737;59.466;18.036;2024-03-29T11:55:13;10.52;;;5.13;;
19207;SDS011;9737;59.466;18.036;2024-03-29T11:57:39;8.90;;;5.28;;
19207;SDS011;9737;59.466;18.036;2024-03-29T12:00:07;16.98;;;5.57;;
19207;SDS011;9737;59.466;18.036;2024-03-29T12:02:34;11.27;;;5.68;;
19207;SDS011;9737;59.466;18.036;2024-03-29T12:05:06;9.82;;;4.88;;
19207;SDS011;9737;59.466;18.036;2024-03-29T12:07:32;9.02;;;4.88;;
19207;SDS011;9737;59.466;18.036;2024-03-29T12:09:59;6.95;;;4.20;;
19207;SDS011;9737;59.466;18.036;2024-03-29T12:12:25;10.00;;;3.90;;
19207;SDS011;9737;59.466;18.036;2024-03-29T12:14:51;7.80;;;4.05;;
19207;SDS011;9737;59.466;18.036;2024-03-29T12:17:18;20.40;;;4.30;;
19207;SDS011;9737;59.466;18.036;2024-03-29T12:19:44;9.35;;;5.55;;
19207;SDS011;9737;59.466;18.036;2024-03-29T12:22:12;8.05;;;3.08;;
19207;SDS011;9737;59.466;18.036;2024-03-29T12:24:38;10.65;;;3.28;;
19207;SDS011;9737;59.466;18.036;2024-03-29T12:27:05;7.68;;;3.22;;
19207;SDS011;9737;59.466;18.036;2024-03-29T12:29:31;5.72;;;2.75;;
19207;SDS011;9737;59.466;18.036;2024-03-29T12:31:58;7.03;;;2.80;;
19207;SDS011;9737;59.466;18.036;2024-03-29T12:34:25;5.57;;;2.70;;
19207;SDS011;9737;59.466;18.036;2024-03-29T12:36:51;7.32;;;2.85;;
19207;SDS011;9737;59.466;18.036;2024-03-29T12:39:19;4.85;;;2.50;;
19207;SDS011;9737;59.466;18.036;2024-03-29T12:41:46;5.28;;;3.00;;
19207;SDS011;9737;59.466;18.036;2024-03-29T12:44:12;10.25;;;3.95;;
19207;SDS011;9737;59.466;18.036;2024-03-29T12:46:39;7.85;;;4.28;;
19207;SDS011;9737;59.466;18.036;2024-03-29T12:49:05;4.45;;;2.00;;
19207;SDS011;9737;59.466;18.036;2024-03-29T12:51:32;14.27;;;2.22;;
19207;SDS011;9737;59.466;18.036;2024-03-29T12:54:00;4.93;;;2.00;;
19207;SDS011;9737;59.466;18.036;2024-03-29T12:56:28;3.08;;;2.10;;
19207;SDS011;9737;59.466;18.036;2024-03-29T12:58:55;6.32;;;1.98;;
19207;SDS011;9737;59.466;18.036;2024-03-29T13:01:21;4.45;;;1.75;;
19207;SDS011;9737;59.466;18.036;2024-03-29T13:03:47;2.58;;;1.67;;
19207;SDS011;9737;59.466;18.036;2024-03-29T13:06:13;4.25;;;1.80;;
19207;SDS011;9737;59.466;18.036;2024-03-29T13:08:40;9.65;;;4.35;;
19207;SDS011;9737;59.466;18.036;2024-03-29T13:11:06;7.25;;;2.53;;
19207;SDS011;9737;59.466;18.036;2024-03-29T13:13:34;7.15;;;2.35;;
19207;SDS011;9737;59.466;18.036;2024-03-29T13:16:00;13.68;;;2.17;;
19207;SDS011;9737;59.466;18.036;2024-03-29T13:18:26;6.93;;;2.10;;
19207;SDS011;9737;59.466;18.036;2024-03-29T13:20:52;16.23;;;2.30;;
19207;SDS011;9737;59.466;18.036;2024-03-29T13:23:19;15.55;;;2.10;;
19207;SDS011;9737;59.466;18.036;2024-03-29T13:25:45;6.28;;;1.90;;
19207;SDS011;9737;59.466;18.036;2024-03-29T13:28:11;7.43;;;1.92;;
19207;SDS011;9737;59.466;18.036;2024-03-29T13:30:39;4.40;;;1.83;;
19207;SDS011;9737;59.466;18.036;2024-03-29T13:33:05;10.35;;;2.00;;
19207;SDS011;9737;59.466;18.036;2024-03-29T13:35:32;8.48;;;2.05;;
19207;SDS011;9737;59.466;18.036;2024-03-29T13:37:58;16.85;;;2.22;;
19207;SDS011;9737;59.466;18.036;2024-03-29T13:40:24;10.73;;;1.90;;
19207;SDS011;9737;59.466;18.036;2024-03-29T13:42:50;5.63;;;1.65;;
19207;SDS011;9737;59.466;18.036;2024-03-29T13:45:17;6.85;;;1.77;;
19207;SDS011;9737;59.466;18.036;2024-03-29T13:47:44;13.88;;;4.00;;
19207;SDS011;9737;59.466;18.036;2024-03-29T13:50:11;14.30;;;5.90;;
19207;SDS011;9737;59.466;18.036;2024-03-29T13:52:37;6.82;;;2.50;;
19207;SDS011;9737;59.466;18.036;2024-03-29T13:55:04;13.35;;;1.90;;
19207;SDS011;9737;59.466;18.036;2024-03-29T13:57:31;7.57;;;1.77;;
19207;SDS011;9737;59.466;18.036;2024-03-29T13:59:58;5.03;;;1.80;;
19207;SDS011;9737;59.466;18.036;2024-03-29T14:02:25;3.72;;;1.80;;
19207;SDS011;9737;59.466;18.036;2024-03-29T14:04:53;7.45;;;1.63;;
19207;SDS011;9737;59.466;18.036;2024-03-29T14:07:19;7.78;;;2.00;;
19207;SDS011;9737;59.466;18.036;2024-03-29T14:09:46;14.82;;;2.50;;
19207;SDS011;9737;59.466;18.036;2024-03-29T14:12:13;8.57;;;1.60;;
19207;SDS011;9737;59.466;18.036;2024-03-29T14:14:39;3.67;;;1.73;;
19207;SDS011;9737;59.466;18.036;2024-03-29T14:17:06;6.22;;;2.10;;
19207;SDS011;9737;59.466;18.036;2024-03-29T14:19:32;4.32;;;1.70;;
19207;SDS011;9737;59.466;18.036;2024-03-29T14:22:00;7.68;;;2.55;;
19207;SDS011;9737;59.466;18.036;2024-03-29T14:24:27;4.32;;;2.10;;
19207;SDS011;9737;59.466;18.036;2024-03-29T14:26:53;7.25;;;2.30;;